Venus Spirit — A8YD8 — position and weather

sailwx.info

Track history (hours):
 
Tides and Currents Weather Stations Pressure Air Temp Water Temp Dewpoint Dewpoint Depression Visibility Wind Speed Wind Dir Waves Ship Positions

Venus Spirit

Last reported at 2018-Jun-20 19:00 UTC. Time now 2018-Jun-20 19:14 UTC.
Position N 33°38' W 120°15'.

Length 183 m; draft 9 m.

Type: Cargo ship. MMSI: 636015032.

Date/timePositionNaut miles runAvg speedWind from/ knotsBaromVisibWave heightAir tempDewpointWater temp
2018-Jun-20 19:00N 33°38' W 120°15'713.7
2018-Jun-20 18:31N 33°38' W 120°23'713.5
2018-Jun-20 18:00N 33°38' W 120°31'713.7
2018-Jun-20 17:30N 33°38' W 120°39'713.8
2018-Jun-20 17:00N 33°38' W 120°48'713.5
2018-Jun-20 16:31N 33°37' W 120°56'713.4
2018-Jun-20 16:00N 33°38' W 121°04'510.6
2018-Jun-20 15:30N 33°37' W 121°10'1 1.8
2018-Jun-20 15:00N 33°38' W 121°10'611.1
2018-Jun-20 14:30N 33°38' W 121°17'713.0
2018-Jun-20 14:00N 33°39' W 121°25'713.2
2018-Jun-20 13:30N 33°39' W 121°33'813.1
2018-Jun-20 12:52N 33°39' W 121°43'513.1
2018-Jun-20 12:30N 33°39' W 121°49'713.4
2018-Jun-20 11:59N 33°39' W 121°57'613.3
2018-Jun-20 11:30N 33°39' W 122°05'1113.4
2018-Jun-20 10:43N 33°39' W 122°17'513.0
2018-Jun-20 10:21N 33°39' W 122°23'912.7
2018-Jun-20 09:37N 33°39' W 122°34'112.8
2018-Jun-20 09:30N 33°39' W 122°36'612.7
2018-Jun-20 09:00N 33°40' W 122°43'812.9
2018-Jun-20 08:23N 33°40' W 122°53'513.1
2018-Jun-20 08:00N 33°40' W 122°59'713.4
2018-Jun-20 07:30N 33°40' W 123°07'713.9
2018-Jun-20 07:00N 33°40' W 123°16'713.6
2018-Jun-20 06:27N 33°40' W 123°25'613.6
2018-Jun-20 06:00N 33°40' W 123°32'1013.5
2018-Jun-20 05:14N 33°40' W 123°44'313.4
2018-Jun-20 04:59N 33°40' W 123°48'2412.7
2018-Jun-20 03:03N 33°41' W 124°18'113.1
2018-Jun-20 03:00N 33°41' W 124°19'19210.5
2018-Jun-19 08:42N 34°49' W 127°57'157 5.4
2018-Jun-18 03:35N 36°30' W 130°23'216.8
2018-Jun-18 03:29N 36°31' W 130°25'  
Track history (hours):
 
Tides and Currents Weather Stations Pressure Air Temp Water Temp Dewpoint Dewpoint Depression Visibility Wind Speed Wind Dir Waves Ship Positions

Venus Spirit

Last reported at 2018-Jun-20 19:00 UTC. Time now 2018-Jun-20 19:14 UTC.
Position N 33°38' W 120°15'.

Length 183 m; draft 9 m.

Type: Cargo ship. MMSI: 636015032.

Date/timePositionNaut miles runAvg speedWind from/ knotsBaromVisibWave heightAir tempDewpointWater temp
2018-Jun-20 19:00N 33°38' W 120°15'713.7
2018-Jun-20 18:31N 33°38' W 120°23'713.5
2018-Jun-20 18:00N 33°38' W 120°31'713.7
2018-Jun-20 17:30N 33°38' W 120°39'713.8
2018-Jun-20 17:00N 33°38' W 120°48'713.5
2018-Jun-20 16:31N 33°37' W 120°56'713.4
2018-Jun-20 16:00N 33°38' W 121°04'510.6
2018-Jun-20 15:30N 33°37' W 121°10'1 1.8
2018-Jun-20 15:00N 33°38' W 121°10'611.1
2018-Jun-20 14:30N 33°38' W 121°17'713.0
2018-Jun-20 14:00N 33°39' W 121°25'713.2
2018-Jun-20 13:30N 33°39' W 121°33'813.1
2018-Jun-20 12:52N 33°39' W 121°43'513.1
2018-Jun-20 12:30N 33°39' W 121°49'713.4
2018-Jun-20 11:59N 33°39' W 121°57'613.3
2018-Jun-20 11:30N 33°39' W 122°05'1113.4
2018-Jun-20 10:43N 33°39' W 122°17'513.0
2018-Jun-20 10:21N 33°39' W 122°23'912.7
2018-Jun-20 09:37N 33°39' W 122°34'112.8
2018-Jun-20 09:30N 33°39' W 122°36'612.7
2018-Jun-20 09:00N 33°40' W 122°43'812.9
2018-Jun-20 08:23N 33°40' W 122°53'513.1
2018-Jun-20 08:00N 33°40' W 122°59'713.4
2018-Jun-20 07:30N 33°40' W 123°07'713.9
2018-Jun-20 07:00N 33°40' W 123°16'713.6
2018-Jun-20 06:27N 33°40' W 123°25'613.6
2018-Jun-20 06:00N 33°40' W 123°32'1013.5
2018-Jun-20 05:14N 33°40' W 123°44'313.4
2018-Jun-20 04:59N 33°40' W 123°48'2412.7
2018-Jun-20 03:03N 33°41' W 124°18'113.1
2018-Jun-20 03:00N 33°41' W 124°19'19210.5
2018-Jun-19 08:42N 34°49' W 127°57'157 5.4
2018-Jun-18 03:35N 36°30' W 130°23'216.8
2018-Jun-18 03:29N 36°31' W 130°25'  

Dump ship's entire track history